Disclaimer

Please do not use the information listed here in-flight or in-navigation, as they are not provided to us by the airports but are provided by volunteers, so they might be outdated.

Search


Regions


Airport information page

Radio informations:
Tower (TWR) - 118.2 MHz
MANIZALES RDO - 3488 MHz
MEDELLIN APP - 121.1 MHz

Airport informations:
Latitude: 05° 01' 46.55" N
Longitude: 075° 27' 52.95" W
Elevation: 6871 feet - 2094 meters
Operating hours: Remarks
Operating agency: Civil government, landing fees and diplomatic clearance may be required
Timezone: UTC-5
Fuel: Jet A1, without icing nhibitor.

Runway information:
10/28 - 4835 x 65 feet< - >1474 x 20 meters

Recent METARs:
SKMZ 211100Z 09003KT 8000 VCFG FEW012 14/12 A3032 RMK VCFG/W

Airport on the map: